createdAt,value
2018-09-06T00:00:29.031Z,19.659424
2018-09-06T00:01:44.960Z,19.518433
2018-09-06T00:03:01.072Z,19.548645
2018-09-06T00:04:17.196Z,19.548645
2018-09-06T00:05:33.216Z,19.528503
2018-09-06T00:06:49.272Z,19.558716
2018-09-06T00:08:05.316Z,19.588928
2018-09-06T00:09:21.686Z,19.468079
2018-09-06T00:10:38.401Z,19.447937
2018-09-06T00:11:54.357Z,19.548645
2018-09-06T00:13:10.425Z,19.528503
2018-09-06T00:14:26.394Z,19.437866
2018-09-06T00:15:42.388Z,19.437866
2018-09-06T00:16:58.337Z,19.337158
2018-09-06T00:18:14.307Z,19.447937
2018-09-06T00:19:30.310Z,19.478149
2018-09-06T00:20:46.464Z,19.528503
2018-09-06T00:22:02.410Z,19.387512
2018-09-06T00:23:18.330Z,19.367371
2018-09-06T00:24:34.251Z,19.417725
2018-09-06T00:25:50.282Z,19.437866
2018-09-06T00:27:06.355Z,19.447937
2018-09-06T00:28:22.279Z,19.548645
2018-09-06T00:29:38.273Z,19.528503
2018-09-06T00:30:54.337Z,19.548645
2018-09-06T00:32:10.292Z,19.48822
2018-09-06T00:33:26.387Z,19.478149
2018-09-06T00:34:42.298Z,19.10553
2018-09-06T00:35:58.315Z,19.004822
2018-09-06T00:37:14.339Z,18.863831
2018-09-06T00:38:30.277Z,18.964539
2018-09-06T00:39:46.188Z,19.085388
2018-09-06T00:41:02.125Z,19.296875
2018-09-06T00:42:18.024Z,19.286804
2018-09-06T00:45:14.750Z,19.347229
2018-09-06T00:46:30.689Z,19.367371
2018-09-06T00:47:46.618Z,19.266663
2018-09-06T00:49:02.519Z,19.165955
2018-09-06T00:50:19.470Z,19.226379
2018-09-06T00:51:35.535Z,19.23645
2018-09-06T00:52:51.469Z,19.286804
2018-09-06T00:54:07.452Z,19.256592
2018-09-06T00:55:24.437Z,19.216309
2018-09-06T00:56:40.470Z,19.115601
2018-09-06T00:57:56.480Z,19.035034
2018-09-06T00:59:12.463Z,19.035034
2018-09-06T01:00:28.452Z,19.115601
2018-09-06T01:01:44.385Z,19.155884
2018-09-06T01:03:00.333Z,19.23645
2018-09-06T01:04:16.238Z,19.216309
2018-09-06T01:05:32.243Z,19.23645
2018-09-06T01:08:28.737Z,19.165955
2018-09-06T01:09:44.732Z,19.035034
2018-09-06T01:11:00.707Z,19.085388
2018-09-06T01:12:16.673Z,19.165955
2018-09-06T01:13:32.819Z,19.045105
2018-09-06T01:14:48.917Z,18.833618
2018-09-06T01:16:04.870Z,18.823547
2018-09-06T01:17:20.845Z,18.883972
2018-09-06T01:18:36.822Z,18.894043
2018-09-06T01:19:52.788Z,18.85376
2018-09-06T01:21:08.814Z,18.924255
2018-09-06T01:22:24.748Z,19.075317
2018-09-06T01:23:40.659Z,18.924255
2018-09-06T01:24:56.582Z,18.833618
2018-09-06T01:26:12.518Z,18.883972
2018-09-06T01:27:28.516Z,18.85376
2018-09-06T01:28:44.416Z,18.894043
2018-09-06T01:30:00.412Z,18.883972
2018-09-06T01:31:16.433Z,18.944397
2018-09-06T01:32:32.374Z,18.944397
2018-09-06T01:33:48.366Z,18.863831
2018-09-06T01:35:04.311Z,18.863831
2018-09-06T01:36:20.392Z,19.004822
2018-09-06T01:37:36.377Z,18.964539
2018-09-06T01:38:52.321Z,19.014893
2018-09-06T01:40:08.263Z,18.914185
2018-09-06T01:41:24.355Z,18.924255
2018-09-06T01:42:40.343Z,18.85376
2018-09-06T01:43:56.359Z,18.702698
2018-09-06T01:45:12.273Z,18.642273
2018-09-06T01:46:28.205Z,18.702698
2018-09-06T01:47:44.124Z,18.682556
2018-09-06T01:49:00.037Z,18.742981
2018-09-06T01:53:12.724Z,18.793335
2018-09-06T01:54:29.619Z,18.742981
2018-09-06T01:55:45.671Z,18.793335
2018-09-06T01:57:01.737Z,18.712769
2018-09-06T01:58:17.646Z,18.60199
2018-09-06T01:59:33.557Z,18.642273
2018-09-06T02:00:49.477Z,18.642273
2018-09-06T02:02:05.408Z,18.712769
2018-09-06T02:03:21.334Z,18.712769
2018-09-06T02:04:37.249Z,18.73291
2018-09-06T02:05:53.250Z,18.763123
2018-09-06T02:07:09.193Z,18.73291
2018-09-06T02:08:25.157Z,18.73291
2018-09-06T02:09:41.203Z,18.742981
2018-09-06T02:10:57.112Z,18.702698
2018-09-06T02:12:13.164Z,18.682556
2018-09-06T02:13:29.103Z,18.742981
2018-09-06T02:14:45.065Z,18.783264
2018-09-06T02:16:00.993Z,18.73291
2018-09-06T02:17:16.931Z,18.742981
2018-09-06T02:18:33.009Z,18.763123
2018-09-06T02:19:48.927Z,18.682556
2018-09-06T02:21:04.954Z,18.682556
2018-09-06T02:22:20.903Z,18.712769
2018-09-06T02:23:36.960Z,18.551636
2018-09-06T02:24:52.903Z,18.531494
2018-09-06T02:26:08.903Z,18.420715
2018-09-06T02:27:24.819Z,18.390503
2018-09-06T02:28:40.752Z,18.491211
2018-09-06T02:29:56.669Z,18.571777
2018-09-06T02:31:12.639Z,18.410645
2018-09-06T02:32:28.758Z,18.309937
2018-09-06T02:33:44.710Z,18.360291
2018-09-06T02:35:00.605Z,18.340149
2018-09-06T02:36:16.544Z,18.48114
2018-09-06T02:37:32.511Z,18.410645
2018-09-06T02:38:48.436Z,18.460999
2018-09-06T02:40:04.328Z,18.420715
2018-09-06T02:41:20.365Z,18.48114
2018-09-06T02:42:36.356Z,18.491211
2018-09-06T02:43:52.436Z,18.410645
2018-09-06T02:45:08.392Z,18.48114
2018-09-06T02:46:24.298Z,18.299866
2018-09-06T02:47:40.243Z,18.189087
2018-09-06T02:48:56.219Z,18.027954
2018-09-06T02:50:12.255Z,17.997742
2018-09-06T02:51:28.289Z,17.967529
2018-09-06T02:52:44.222Z,18.058167
2018-09-06T02:54:00.199Z,18.017883
2018-09-06T02:55:16.118Z,18.088379
2018-09-06T02:56:32.016Z,18.128662
2018-09-06T02:57:47.955Z,17.9776
2018-09-06T02:59:03.925Z,18.017883
2018-09-06T03:00:19.931Z,17.967529
2018-09-06T03:01:35.923Z,18.048096
2018-09-06T03:02:51.941Z,18.088379
2018-09-06T03:04:07.877Z,18.017883
2018-09-06T03:05:23.795Z,18.078308
2018-09-06T03:06:39.745Z,18.017883
2018-09-06T03:07:55.704Z,18.017883
2018-09-06T03:09:11.640Z,17.967529
2018-09-06T03:10:27.600Z,18.048096
2018-09-06T03:11:43.543Z,18.027954
2018-09-06T03:12:59.522Z,17.907104
2018-09-06T03:14:15.461Z,17.876892
2018-09-06T03:15:31.444Z,17.776184
2018-09-06T03:16:47.316Z,17.947388
2018-09-06T03:18:03.320Z,17.927246
2018-09-06T03:19:19.245Z,17.937317
2018-09-06T03:20:35.099Z,17.897034
2018-09-06T03:21:51.042Z,17.897034
2018-09-06T03:23:07.014Z,17.897034
2018-09-06T03:24:22.962Z,17.947388
2018-09-06T03:25:38.882Z,17.876892
2018-09-06T03:26:54.893Z,17.876892
2018-09-06T03:28:10.942Z,17.937317
2018-09-06T03:29:26.959Z,17.9776
2018-09-06T03:30:42.912Z,18.058167
2018-09-06T03:31:58.827Z,18.058167
2018-09-06T03:33:14.689Z,17.997742
2018-09-06T03:34:30.602Z,18.017883
2018-09-06T03:35:46.563Z,17.9776
2018-09-06T03:37:02.442Z,17.876892
2018-09-06T03:38:18.654Z,17.715759
2018-09-06T03:39:34.779Z,17.897034
2018-09-06T03:40:50.711Z,17.937317
2018-09-06T03:42:06.653Z,17.937317
2018-09-06T03:43:22.591Z,17.9776
2018-09-06T03:44:38.616Z,17.937317
2018-09-06T03:45:54.687Z,17.9776
2018-09-06T03:47:10.788Z,18.058167
2018-09-06T03:48:26.711Z,18.108521
2018-09-06T03:49:42.640Z,18.058167
2018-09-06T03:50:58.551Z,17.937317
2018-09-06T03:52:14.636Z,17.876892
2018-09-06T03:53:31.538Z,17.866821
2018-09-06T03:54:47.425Z,17.927246
2018-09-06T03:57:43.722Z,17.927246
2018-09-06T03:58:59.608Z,17.876892
2018-09-06T04:00:16.721Z,17.655334
2018-09-06T04:01:32.719Z,17.463989
2018-09-06T04:02:48.712Z,17.504272
2018-09-06T04:04:04.645Z,17.544556
2018-09-06T04:05:20.655Z,17.715759
2018-09-06T04:06:36.772Z,17.655334
2018-09-06T04:07:52.695Z,17.655334
2018-09-06T04:09:08.716Z,17.564697
2018-09-06T04:10:24.694Z,17.60498
2018-09-06T04:11:40.644Z,17.47406
2018-09-06T04:12:56.627Z,17.544556
2018-09-06T04:14:12.701Z,17.685547
2018-09-06T04:15:28.631Z,17.745972
2018-09-06T04:16:44.701Z,17.705688
2018-09-06T04:18:00.600Z,17.685547
2018-09-06T04:20:57.248Z,17.534485
2018-09-06T04:22:13.181Z,17.544556
2018-09-06T04:23:29.169Z,17.59491
2018-09-06T04:24:45.101Z,17.645264
2018-09-06T04:26:01.194Z,17.705688
2018-09-06T04:27:17.152Z,17.60498
2018-09-06T04:28:33.195Z,17.544556
2018-09-06T04:29:49.162Z,17.383423
2018-09-06T04:31:05.156Z,17.423706
2018-09-06T04:32:21.035Z,17.463989
2018-09-06T04:33:37.039Z,17.494202
2018-09-06T04:34:52.925Z,17.574768
2018-09-06T04:36:09.028Z,17.564697
2018-09-06T04:37:25.054Z,17.504272
2018-09-06T04:38:40.988Z,17.47406
2018-09-06T04:39:56.904Z,17.322998
2018-09-06T04:41:12.798Z,17.272644
2018-09-06T04:42:28.740Z,17.171936
2018-09-06T04:43:44.935Z,17.121582
2018-09-06T04:45:00.839Z,17.171936
2018-09-06T04:46:16.868Z,17.041016
2018-09-06T04:47:32.927Z,17.22229
2018-09-06T04:48:49.144Z,17.322998
2018-09-06T04:50:05.212Z,17.373352
2018-09-06T04:53:03.089Z,17.35321
2018-09-06T04:54:19.999Z,17.35321
2018-09-06T04:55:36.163Z,17.242432
2018-09-06T04:56:52.144Z,17.312927
2018-09-06T04:58:08.142Z,17.192078
2018-09-06T04:59:24.149Z,17.202148
2018-09-06T05:00:40.102Z,17.232361
2018-09-06T05:01:56.069Z,17.232361
2018-09-06T05:04:52.643Z,17.171936
2018-09-06T05:06:08.660Z,17.141724
2018-09-06T05:07:24.581Z,17.131653
2018-09-06T05:08:40.520Z,17.22229
2018-09-06T05:09:56.660Z,17.312927
2018-09-06T05:11:12.593Z,17.322998
2018-09-06T05:12:28.625Z,17.383423
2018-09-06T05:13:44.600Z,17.312927
2018-09-06T05:15:00.511Z,17.202148
2018-09-06T05:16:16.477Z,17.272644
2018-09-06T05:17:32.370Z,17.232361
2018-09-06T05:18:48.520Z,17.161865
2018-09-06T05:20:04.510Z,17.131653
2018-09-06T05:21:20.554Z,17.282715
2018-09-06T05:22:36.605Z,17.322998
2018-09-06T05:23:52.583Z,17.272644
2018-09-06T05:25:08.553Z,17.34314
2018-09-06T05:28:05.434Z,17.242432
2018-09-06T05:29:21.385Z,17.242432
2018-09-06T05:30:38.410Z,17.192078
2018-09-06T05:31:54.325Z,17.302856
2018-09-06T05:33:10.373Z,17.322998
2018-09-06T05:34:26.359Z,17.282715
2018-09-06T05:35:42.551Z,17.312927
2018-09-06T05:36:58.487Z,17.322998
2018-09-06T05:38:14.500Z,17.322998
2018-09-06T05:39:30.542Z,17.373352
2018-09-06T05:40:46.626Z,17.171936
2018-09-06T05:42:02.542Z,17.192078
2018-09-06T05:43:18.591Z,17.141724
2018-09-06T05:44:34.547Z,17.322998
2018-09-06T05:47:31.513Z,17.393494
2018-09-06T05:48:47.368Z,17.35321
2018-09-06T05:50:03.292Z,17.242432
2018-09-06T05:51:19.317Z,17.312927
2018-09-06T05:52:35.274Z,17.312927
2018-09-06T05:53:51.171Z,17.34314
2018-09-06T05:55:07.152Z,17.383423
2018-09-06T05:56:23.061Z,17.161865
2018-09-06T05:57:39.007Z,17.141724
2018-09-06T05:58:54.943Z,17.282715
2018-09-06T06:00:10.906Z,17.272644
2018-09-06T06:01:26.800Z,17.413635
2018-09-06T06:02:42.811Z,17.423706
2018-09-06T06:03:58.885Z,17.34314
2018-09-06T06:05:14.873Z,17.383423
2018-09-06T06:06:30.810Z,17.312927
2018-09-06T06:07:46.841Z,17.443848
2018-09-06T06:09:02.795Z,17.494202
2018-09-06T06:10:18.863Z,17.443848
2018-09-06T06:11:34.810Z,17.574768
2018-09-06T06:12:50.730Z,17.625122
2018-09-06T06:14:06.648Z,17.625122
2018-09-06T06:15:23.535Z,17.645264
2018-09-06T06:16:39.478Z,17.625122
2018-09-06T06:17:55.502Z,17.625122
2018-09-06T06:20:52.140Z,17.715759
2018-09-06T06:22:08.069Z,17.59491
2018-09-06T06:23:24.029Z,17.776184
2018-09-06T06:24:40.191Z,17.655334
2018-09-06T06:25:56.349Z,17.715759
2018-09-06T06:27:12.399Z,17.776184
2018-09-06T06:28:28.367Z,17.786255
2018-09-06T06:29:44.372Z,17.836609
2018-09-06T06:31:00.262Z,17.85675
2018-09-06T06:32:16.152Z,17.72583
2018-09-06T06:33:32.113Z,17.655334
2018-09-06T06:34:48.057Z,17.756042
2018-09-06T06:36:05.038Z,17.866821
2018-09-06T06:37:20.973Z,17.967529
2018-09-06T06:38:36.935Z,17.967529
2018-09-06T06:39:52.900Z,18.118591
2018-09-06T06:41:08.929Z,18.22937
2018-09-06T06:42:24.889Z,18.179016
2018-09-06T06:43:40.839Z,18.259583
2018-09-06T06:44:56.978Z,18.239441
2018-09-06T06:46:12.889Z,18.299866
2018-09-06T06:50:25.286Z,18.330078
2018-09-06T06:51:41.282Z,18.370361
2018-09-06T06:52:57.184Z,18.420715
2018-09-06T06:54:14.094Z,18.430786
2018-09-06T06:55:30.060Z,18.521423
2018-09-06T06:56:46.007Z,18.571777
2018-09-06T06:58:01.989Z,18.672485
2018-09-06T06:59:17.913Z,18.742981
2018-09-06T07:00:33.851Z,18.793335
2018-09-06T07:01:49.767Z,18.863831
2018-09-06T07:03:05.751Z,18.883972
2018-09-06T07:04:21.722Z,19.014893
2018-09-06T07:05:37.746Z,19.004822
2018-09-06T07:06:53.806Z,18.964539
2018-09-06T07:08:09.884Z,18.944397
2018-09-06T07:09:25.813Z,18.924255
2018-09-06T07:10:41.728Z,18.883972
2018-09-06T07:11:57.689Z,18.924255
2018-09-06T07:13:13.564Z,18.914185
2018-09-06T07:14:29.456Z,18.833618
2018-09-06T07:15:45.614Z,18.883972
2018-09-06T07:17:01.661Z,18.964539
2018-09-06T07:19:58.346Z,18.964539
2018-09-06T07:21:14.238Z,18.914185
2018-09-06T07:22:30.278Z,18.924255
2018-09-06T07:23:46.440Z,18.974609
2018-09-06T07:25:02.469Z,18.944397
2018-09-06T07:26:18.398Z,19.035034
2018-09-06T07:27:34.374Z,19.075317
2018-09-06T07:28:50.322Z,19.165955
2018-09-06T07:30:06.268Z,19.196167
2018-09-06T07:31:22.408Z,19.155884
2018-09-06T07:32:38.373Z,19.10553
2018-09-06T07:33:54.468Z,19.145813
2018-09-06T07:35:10.585Z,19.165955
2018-09-06T07:36:26.646Z,19.256592
2018-09-06T07:37:42.622Z,19.266663
2018-09-06T07:38:58.553Z,19.377441
2018-09-06T07:40:14.421Z,19.407654
2018-09-06T07:41:30.477Z,19.407654
2018-09-06T07:42:46.396Z,19.387512
2018-09-06T07:44:02.418Z,19.407654
2018-09-06T07:45:18.510Z,19.387512
2018-09-06T07:46:34.443Z,19.417725
2018-09-06T07:47:50.494Z,19.588928
2018-09-06T07:49:06.404Z,19.699707
2018-09-06T07:50:22.306Z,19.820557
2018-09-06T07:51:39.240Z,19.891052
2018-09-06T07:52:55.237Z,19.931335
2018-09-06T07:54:11.241Z,20.032043
2018-09-06T07:55:27.256Z,20.122681
2018-09-06T07:56:43.186Z,20.142822
2018-09-06T07:59:39.802Z,20.183105
2018-09-06T08:00:55.843Z,20.193176
2018-09-06T08:02:11.813Z,20.223389
2018-09-06T08:03:27.766Z,20.152893
2018-09-06T08:04:43.731Z,20.142822
2018-09-06T08:05:59.680Z,20.032043
2018-09-06T08:07:15.708Z,20.001831
2018-09-06T08:08:32.613Z,20.072327
2018-09-06T08:09:48.635Z,20.021973
2018-09-06T08:11:04.620Z,20.11261
2018-09-06T08:12:20.514Z,20.001831
2018-09-06T08:13:36.469Z,20.102539
2018-09-06T08:14:52.525Z,20.021973
2018-09-06T08:16:08.536Z,20.072327
2018-09-06T08:17:24.524Z,20.152893
2018-09-06T08:18:40.473Z,20.122681
2018-09-06T08:19:56.490Z,20.122681
2018-09-06T08:21:12.452Z,20.193176
2018-09-06T08:22:28.406Z,20.082397
2018-09-06T08:23:44.384Z,20.213318
2018-09-06T08:25:00.439Z,20.032043
2018-09-06T08:26:16.381Z,20.122681
2018-09-06T08:27:32.449Z,20.183105
2018-09-06T08:30:29.096Z,20.273743
2018-09-06T08:31:45.097Z,20.193176
2018-09-06T08:33:01.017Z,20.223389
2018-09-06T08:34:17.056Z,20.303955
2018-09-06T08:35:33.106Z,20.193176
2018-09-06T08:36:49.089Z,20.193176
2018-09-06T08:38:04.941Z,20.374451
2018-09-06T08:39:20.842Z,20.152893
2018-09-06T08:40:36.795Z,20.11261
2018-09-06T08:41:52.794Z,20.273743
2018-09-06T08:43:09.259Z,20.404663
2018-09-06T08:44:25.348Z,20.475159
2018-09-06T08:45:41.331Z,20.515442
2018-09-06T08:46:57.241Z,20.444946
2018-09-06T08:48:13.224Z,20.424805
2018-09-06T08:49:29.184Z,20.444946
2018-09-06T08:50:45.164Z,20.575867
2018-09-06T08:52:01.251Z,20.525513
2018-09-06T08:53:17.126Z,20.525513
2018-09-06T08:54:33.159Z,20.555725
2018-09-06T08:55:49.089Z,20.575867
2018-09-06T08:57:04.997Z,20.575867
2018-09-06T08:58:20.994Z,20.596008
2018-09-06T08:59:37.090Z,20.636292
2018-09-06T09:00:53.109Z,20.666504
2018-09-06T09:02:09.163Z,20.696716
2018-09-06T09:03:25.049Z,20.706787
2018-09-06T09:04:41.101Z,20.626221
2018-09-06T09:05:56.977Z,20.636292
2018-09-06T09:07:12.880Z,20.74707
2018-09-06T09:08:28.851Z,20.737
2018-09-06T09:09:44.856Z,20.797424
2018-09-06T09:11:00.788Z,20.857849
2018-09-06T09:12:16.833Z,20.857849
2018-09-06T09:13:32.859Z,20.636292
2018-09-06T09:14:48.826Z,20.706787
2018-09-06T09:16:04.961Z,20.918274
2018-09-06T09:17:20.967Z,20.847778
2018-09-06T09:18:36.929Z,20.857849
2018-09-06T09:19:52.838Z,20.585938
2018-09-06T09:21:08.786Z,20.706787
2018-09-06T09:22:24.909Z,20.585938
2018-09-06T09:23:40.785Z,20.515442
2018-09-06T09:24:56.698Z,20.74707
2018-09-06T09:26:12.745Z,20.847778
2018-09-06T09:27:28.813Z,20.888062
2018-09-06T09:28:44.722Z,20.888062
2018-09-06T09:30:00.711Z,20.797424
2018-09-06T09:31:16.678Z,20.767212
2018-09-06T09:32:32.713Z,20.857849
2018-09-06T09:33:48.721Z,20.948486
2018-09-06T09:35:04.693Z,21.149902
2018-09-06T09:36:20.617Z,20.99884
2018-09-06T09:37:36.509Z,21.069336
2018-09-06T09:38:52.494Z,21.099548
2018-09-06T09:40:08.454Z,21.25061
2018-09-06T09:41:24.446Z,21.300964
2018-09-06T09:42:40.438Z,21.431885
2018-09-06T09:43:56.470Z,21.472168
2018-09-06T09:45:12.418Z,21.290894
2018-09-06T09:48:29.328Z,21.512451
2018-09-06T09:49:45.330Z,21.452026
2018-09-06T09:51:01.299Z,21.331177
2018-09-06T09:52:17.291Z,21.431885
2018-09-06T09:53:19.842Z,21.411743
2018-09-06T09:54:35.941Z,21.512451
2018-09-06T09:55:51.909Z,21.50238
2018-09-06T09:58:48.396Z,21.693726
2018-09-06T10:00:04.379Z,21.603088
2018-09-06T10:01:20.320Z,21.774292
2018-09-06T10:02:36.352Z,22.026062
2018-09-06T10:03:52.336Z,22.207336
2018-09-06T10:05:08.381Z,22.026062
2018-09-06T10:06:24.507Z,21.915283
2018-09-06T10:07:40.332Z,22.056274
2018-09-06T10:08:56.321Z,22.056274
2018-09-06T10:10:12.254Z,22.036133
2018-09-06T10:11:28.202Z,21.985779
2018-09-06T10:12:44.131Z,22.036133
2018-09-06T10:14:00.016Z,22.00592
2018-09-06T10:15:17.034Z,22.056274
2018-09-06T10:16:33.062Z,22.056274
2018-09-06T10:17:49.000Z,22.036133
2018-09-06T10:19:04.925Z,22.00592
2018-09-06T10:20:21.025Z,21.99585
2018-09-06T10:21:36.965Z,21.935425
2018-09-06T10:22:52.997Z,21.935425
2018-09-06T10:24:09.085Z,21.915283
2018-09-06T10:25:24.989Z,22.036133
2018-09-06T10:26:40.920Z,22.277832
2018-09-06T10:27:56.899Z,22.338257
2018-09-06T10:29:12.861Z,22.438965
2018-09-06T10:30:28.821Z,22.358398
2018-09-06T10:31:44.801Z,22.328186
2018-09-06T10:33:00.763Z,22.368469
2018-09-06T10:34:16.718Z,22.469177
2018-09-06T10:35:32.776Z,22.590027
2018-09-06T10:36:48.626Z,22.529602
2018-09-06T10:38:04.552Z,22.529602
2018-09-06T10:39:20.707Z,22.620239
2018-09-06T10:40:36.542Z,22.741089
2018-09-06T10:41:52.431Z,22.841797
2018-09-06T10:43:08.471Z,22.781372
2018-09-06T10:44:24.434Z,22.861938
2018-09-06T10:45:40.404Z,23.043213
2018-09-06T10:46:56.369Z,22.922363
2018-09-06T10:48:12.287Z,23.063354
2018-09-06T10:49:28.333Z,23.2547
2018-09-06T10:50:44.343Z,23.516541
2018-09-06T10:52:00.251Z,23.355408
2018-09-06T10:53:16.184Z,23.063354
2018-09-06T10:54:32.084Z,22.992859
2018-09-06T10:55:48.003Z,23.043213
2018-09-06T10:57:03.914Z,22.801514
2018-09-06T10:58:19.826Z,22.811584
2018-09-06T10:59:35.800Z,22.76123
2018-09-06T11:00:51.766Z,22.861938
2018-09-06T11:02:07.696Z,23.043213
2018-09-06T11:03:23.774Z,23.284912
2018-09-06T11:04:39.683Z,23.264771
2018-09-06T11:05:55.607Z,23.264771
2018-09-06T11:07:11.544Z,23.13385
2018-09-06T11:08:27.461Z,23.335266
2018-09-06T11:09:44.348Z,23.164062
2018-09-06T11:11:00.307Z,23.143921
2018-09-06T11:12:16.234Z,23.335266
2018-09-06T11:13:32.141Z,23.486328
2018-09-06T11:14:48.022Z,23.365479
2018-09-06T11:16:03.966Z,23.355408
2018-09-06T11:17:19.878Z,23.486328
2018-09-06T11:18:35.758Z,23.476257
2018-09-06T11:19:51.796Z,23.466187
2018-09-06T11:21:07.781Z,23.546753
2018-09-06T11:22:23.803Z,23.446045
2018-09-06T11:23:39.599Z,23.325195
2018-09-06T11:24:55.616Z,23.395691
2018-09-06T11:26:11.739Z,23.587036
2018-09-06T11:29:08.543Z,23.728027
2018-09-06T11:30:24.480Z,23.879089
2018-09-06T11:31:40.400Z,24.161072
2018-09-06T11:35:52.766Z,24.191284
2018-09-06T11:37:08.832Z,24.181213
2018-09-06T11:38:24.790Z,23.989868
2018-09-06T11:39:40.724Z,24.070435
2018-09-06T11:40:56.765Z,24.211426
2018-09-06T11:42:13.059Z,24.241638
2018-09-06T11:43:28.634Z,24.191284
2018-09-06T11:44:44.614Z,24.191284
2018-09-06T11:46:00.539Z,24.070435
2018-09-06T11:47:16.708Z,23.909302
2018-09-06T11:48:32.565Z,23.88916
2018-09-06T11:49:48.506Z,23.919373
2018-09-06T11:51:04.506Z,24.110718
2018-09-06T11:52:20.420Z,24.382629
2018-09-06T11:55:17.300Z,24.402771
2018-09-06T11:56:34.250Z,24.291992
2018-09-06T11:57:50.202Z,24.372559
2018-09-06T11:59:06.118Z,24.634399
2018-09-06T12:00:22.150Z,24.745178
2018-09-06T12:01:38.099Z,24.956665
2018-09-06T12:02:54.032Z,24.815674
2018-09-06T12:04:09.966Z,24.996948
2018-09-06T12:05:25.997Z,25.14801
2018-09-06T12:06:41.993Z,25.027161
2018-09-06T12:07:57.951Z,25.117798
2018-09-06T12:09:13.974Z,25.14801
2018-09-06T12:10:29.981Z,25.188293
2018-09-06T12:11:45.886Z,25.289001
2018-09-06T12:13:01.864Z,25.248718
2018-09-06T12:14:17.826Z,25.137939
2018-09-06T12:15:33.749Z,25.158081
2018-09-06T12:16:49.864Z,25.087585
2018-09-06T12:18:05.800Z,25.117798
2018-09-06T12:19:21.833Z,24.986877
2018-09-06T12:20:37.735Z,25.107727
2018-09-06T12:21:53.691Z,25.238647
2018-09-06T12:23:09.798Z,25.178223
2018-09-06T12:24:25.878Z,25.258789
2018-09-06T12:25:42.095Z,25.329285
2018-09-06T12:26:58.225Z,25.39978
2018-09-06T12:28:14.187Z,25.490417
2018-09-06T12:29:30.230Z,25.52063
2018-09-06T12:30:47.017Z,25.480347
2018-09-06T12:32:03.769Z,25.581055
2018-09-06T12:33:20.247Z,25.631409
2018-09-06T12:34:37.477Z,25.631409
2018-09-06T12:35:53.743Z,25.560913
2018-09-06T12:37:09.706Z,25.631409
2018-09-06T12:38:25.643Z,25.812683
2018-09-06T12:39:41.681Z,25.852966
2018-09-06T12:40:57.646Z,25.923462
2018-09-06T12:42:13.631Z,25.812683
2018-09-06T12:43:29.665Z,25.89325
2018-09-06T12:44:45.590Z,25.711975
2018-09-06T12:46:01.644Z,25.7724
2018-09-06T12:47:17.620Z,25.762329
2018-09-06T12:48:34.181Z,25.963745
2018-09-06T12:49:50.753Z,26.134949
2018-09-06T12:51:06.762Z,26.215515
2018-09-06T12:52:23.368Z,26.185303
2018-09-06T12:53:40.329Z,26.336365
2018-09-06T12:54:56.705Z,26.386719
2018-09-06T12:56:13.297Z,26.708984
2018-09-06T12:57:29.938Z,26.739197
2018-09-06T12:58:46.394Z,26.598206
2018-09-06T13:00:02.362Z,26.52771
2018-09-06T13:01:18.453Z,26.65863
2018-09-06T13:02:34.385Z,26.708984
2018-09-06T13:03:50.461Z,26.608276
2018-09-06T13:05:07.276Z,26.487427
2018-09-06T13:06:23.313Z,26.175232
2018-09-06T13:07:39.283Z,25.963745
2018-09-06T13:08:55.291Z,26.014099
2018-09-06T13:10:11.297Z,25.993958
2018-09-06T13:11:27.235Z,26.084595
2018-09-06T13:12:43.232Z,26.326294
2018-09-06T13:13:59.189Z,26.739197
2018-09-06T13:15:15.258Z,26.920471
2018-09-06T13:16:31.297Z,27.101746
2018-09-06T13:17:47.232Z,26.890259
2018-09-06T13:19:03.235Z,26.708984
2018-09-06T13:20:19.193Z,26.416931
2018-09-06T13:21:35.186Z,25.933533
2018-09-06T13:22:51.154Z,25.732117
2018-09-06T13:24:07.252Z,25.560913
2018-09-06T13:25:23.363Z,25.611267
2018-09-06T13:26:39.379Z,25.560913
2018-09-06T13:27:55.335Z,25.581055
2018-09-06T13:29:11.401Z,25.621338
2018-09-06T13:30:28.346Z,25.711975
2018-09-06T13:31:44.327Z,25.681763
2018-09-06T13:33:00.224Z,25.732117
2018-09-06T13:34:16.259Z,25.591125
2018-09-06T13:35:32.209Z,25.409851
2018-09-06T13:36:48.255Z,25.389709
2018-09-06T13:38:04.254Z,25.389709
2018-09-06T13:39:20.401Z,25.560913
2018-09-06T13:40:36.483Z,25.701904
2018-09-06T13:41:52.614Z,25.711975
2018-09-06T13:43:08.741Z,25.621338
2018-09-06T13:44:24.774Z,25.661621
2018-09-06T13:45:41.326Z,25.460205
2018-09-06T13:46:58.474Z,25.540771
2018-09-06T13:48:14.798Z,25.480347
2018-09-06T13:49:30.987Z,25.369568
2018-09-06T13:50:46.943Z,25.359497
2018-09-06T13:52:03.109Z,25.178223
2018-09-06T13:53:19.058Z,25.208435
2018-09-06T13:56:15.643Z,25.027161
2018-09-06T13:59:13.082Z,24.785461
2018-09-06T14:00:29.078Z,24.815674
2018-09-06T14:01:45.005Z,24.986877
2018-09-06T14:03:01.553Z,24.986877
2018-09-06T14:04:17.566Z,25.007019
2018-09-06T14:05:33.573Z,25.087585
2018-09-06T14:06:49.545Z,25.158081
2018-09-06T14:08:05.535Z,25.178223
2018-09-06T14:09:21.458Z,25.107727
2018-09-06T14:10:37.412Z,25.087585
2018-09-06T14:11:53.519Z,24.956665
2018-09-06T14:13:09.568Z,24.815674
2018-09-06T14:14:25.539Z,24.735107
2018-09-06T14:15:41.541Z,24.694824
2018-09-06T14:16:57.473Z,24.594116
2018-09-06T14:18:13.521Z,24.463196
2018-09-06T14:19:29.448Z,24.553833
2018-09-06T14:20:45.436Z,24.51355
2018-09-06T14:23:42.321Z,24.533691
2018-09-06T14:24:58.471Z,24.614258
2018-09-06T14:26:14.617Z,24.624329
2018-09-06T14:27:30.628Z,24.594116
2018-09-06T14:28:46.593Z,24.634399
2018-09-06T14:30:02.593Z,24.634399
2018-09-06T14:31:18.504Z,24.432983
2018-09-06T14:32:34.436Z,24.412842
2018-09-06T14:33:50.453Z,24.463196
2018-09-06T14:35:06.492Z,24.372559
2018-09-06T14:36:22.529Z,24.432983
2018-09-06T14:37:38.607Z,24.483337
2018-09-06T14:38:54.647Z,24.553833
2018-09-06T14:40:10.577Z,24.443054
2018-09-06T14:41:26.594Z,24.342346
2018-09-06T14:42:42.650Z,24.443054
2018-09-06T14:43:58.663Z,24.624329
2018-09-06T14:45:14.601Z,24.735107
2018-09-06T14:46:30.610Z,24.745178
2018-09-06T14:53:03.983Z,24.845886
2018-09-06T14:54:20.040Z,24.785461
2018-09-06T14:55:36.032Z,24.735107
2018-09-06T14:56:52.081Z,24.785461
2018-09-06T14:58:26.281Z,24.694824
2018-09-06T14:59:42.443Z,24.76532
2018-09-06T15:00:58.554Z,24.76532
2018-09-06T15:02:14.624Z,24.815674
2018-09-06T15:03:30.644Z,24.886169
2018-09-06T15:04:46.880Z,25.007019
2018-09-06T15:06:03.128Z,24.996948
2018-09-06T15:07:19.236Z,25.087585
2018-09-06T15:08:35.343Z,25.14801
2018-09-06T15:09:51.497Z,25.158081
2018-09-06T15:11:07.809Z,25.158081
2018-09-06T15:12:41.712Z,25.188293
2018-09-06T15:13:57.809Z,25.258789
2018-09-06T15:15:13.691Z,25.359497
2018-09-06T15:16:29.763Z,25.389709